createdAt,value
2018-02-13T00:00:54.678Z,-2.66
2018-02-13T00:01:54.726Z,-2.67
2018-02-13T00:02:54.663Z,-2.68
2018-02-13T00:03:54.657Z,-2.64
2018-02-13T00:04:54.713Z,-2.67
2018-02-13T00:05:54.753Z,-2.7
2018-02-13T00:06:54.658Z,-2.77
2018-02-13T00:07:54.817Z,-2.76
2018-02-13T00:08:54.663Z,-2.75
2018-02-13T00:12:54.863Z,-2.81
2018-02-13T00:13:56.089Z,-2.8
2018-02-13T00:14:55.660Z,-2.8
2018-02-13T00:15:54.617Z,-2.77
2018-02-13T00:16:54.591Z,-2.75
2018-02-13T00:17:54.602Z,-2.71
2018-02-13T00:18:54.606Z,-2.71
2018-02-13T00:19:54.599Z,-2.76
2018-02-13T00:20:55.640Z,-2.77
2018-02-13T00:21:54.803Z,-2.7
2018-02-13T00:22:54.598Z,-2.72
2018-02-13T00:23:54.606Z,-2.77
2018-02-13T00:24:54.608Z,-2.8
2018-02-13T00:25:54.602Z,-2.8
2018-02-13T00:26:54.609Z,-2.77
2018-02-13T00:27:54.815Z,-2.81
2018-02-13T00:28:54.616Z,-2.8
2018-02-13T00:29:54.595Z,-2.7
2018-02-13T00:30:54.598Z,-2.75
2018-02-13T00:31:54.598Z,-2.72
2018-02-13T00:32:54.770Z,-2.71
2018-02-13T00:33:56.132Z,-2.7
2018-02-13T00:34:54.608Z,-2.67
2018-02-13T00:35:55.215Z,-2.67
2018-02-13T00:36:54.615Z,-2.77
2018-02-13T00:37:54.601Z,-2.7
2018-02-13T00:38:54.608Z,-2.74
2018-02-13T00:39:54.775Z,-2.7
2018-02-13T00:40:54.618Z,-2.8
2018-02-13T00:41:54.949Z,-2.79
2018-02-13T00:42:54.981Z,-2.79
2018-02-13T00:43:54.784Z,-2.83
2018-02-13T00:44:54.667Z,-2.82
2018-02-13T00:45:54.612Z,-2.77
2018-02-13T00:46:54.514Z,-2.73
2018-02-13T00:47:54.518Z,-2.76
2018-02-13T00:48:54.512Z,-2.8
2018-02-13T00:49:54.532Z,-2.78
2018-02-13T00:50:54.504Z,-2.79
2018-02-13T00:51:54.516Z,-2.78
2018-02-13T00:52:54.527Z,-2.8
2018-02-13T00:53:54.555Z,-2.78
2018-02-13T00:54:54.565Z,-2.79
2018-02-13T00:55:54.537Z,-2.78
2018-02-13T00:56:54.528Z,-2.73
2018-02-13T00:57:54.509Z,-2.8
2018-02-13T00:58:54.521Z,-2.8
2018-02-13T00:59:55.055Z,-2.77
2018-02-13T01:00:54.529Z,-2.74
2018-02-13T01:01:54.619Z,-2.76
2018-02-13T01:02:54.509Z,-2.73
2018-02-13T01:03:54.522Z,-2.73
2018-02-13T01:04:54.545Z,-2.79
2018-02-13T01:05:54.524Z,-2.74
2018-02-13T01:06:54.528Z,-2.75
2018-02-13T01:07:54.541Z,-2.81
2018-02-13T01:08:54.530Z,-2.75
2018-02-13T01:09:54.544Z,-2.7
2018-02-13T01:10:54.542Z,-2.78
2018-02-13T01:11:54.528Z,-2.73
2018-02-13T01:12:54.526Z,-2.8
2018-02-13T01:13:54.536Z,-2.75
2018-02-13T01:14:54.527Z,-2.75
2018-02-13T01:15:54.548Z,-2.77
2018-02-13T01:16:54.544Z,-2.79
2018-02-13T01:17:54.363Z,-2.79
2018-02-13T01:18:54.381Z,-2.79
2018-02-13T01:19:54.394Z,-2.8
2018-02-13T01:20:54.421Z,-2.84
2018-02-13T01:21:54.435Z,-2.85
2018-02-13T01:22:54.375Z,-2.83
2018-02-13T01:23:54.383Z,-2.84
2018-02-13T01:24:54.387Z,-2.82
2018-02-13T01:25:54.380Z,-2.84
2018-02-13T01:26:54.381Z,-2.83
2018-02-13T01:27:54.375Z,-2.81
2018-02-13T01:28:54.392Z,-2.86
2018-02-13T01:29:54.377Z,-2.85
2018-02-13T01:30:54.379Z,-2.91
2018-02-13T01:31:54.390Z,-2.88
2018-02-13T01:32:54.818Z,-2.9
2018-02-13T01:33:55.003Z,-2.93
2018-02-13T01:34:54.389Z,-2.88
2018-02-13T01:35:55.364Z,-2.89
2018-02-13T01:36:54.392Z,-2.89
2018-02-13T01:37:54.382Z,-2.92
2018-02-13T01:38:54.384Z,-2.96
2018-02-13T01:42:06.433Z,-2.97
2018-02-13T01:42:54.391Z,-2.98
2018-02-13T01:43:54.654Z,-2.96
2018-02-13T01:44:54.381Z,-2.95
2018-02-13T01:45:54.396Z,-2.97
2018-02-13T01:46:54.378Z,-2.92
2018-02-13T01:47:54.396Z,-2.95
2018-02-13T01:48:54.228Z,-2.91
2018-02-13T01:49:54.242Z,-2.95
2018-02-13T01:50:54.241Z,-2.97
2018-02-13T01:51:54.422Z,-2.98
2018-02-13T01:52:54.224Z,-2.93
2018-02-13T01:53:54.412Z,-2.96
2018-02-13T01:54:54.291Z,-2.92
2018-02-13T01:55:54.233Z,-2.98
2018-02-13T01:56:54.229Z,-2.99
2018-02-13T01:57:54.233Z,-2.93
2018-02-13T02:00:28.325Z,-2.96
2018-02-13T02:00:54.394Z,-2.93
2018-02-13T02:01:54.635Z,-2.96
2018-02-13T02:02:54.243Z,-2.89
2018-02-13T02:03:54.252Z,-2.94
2018-02-13T02:04:54.252Z,-2.96
2018-02-13T02:05:54.234Z,-2.94
2018-02-13T02:06:54.234Z,-2.91
2018-02-13T02:07:54.219Z,-2.93
2018-02-13T02:08:54.681Z,-2.96
2018-02-13T02:09:54.569Z,-2.97
2018-02-13T02:10:54.244Z,-2.99
2018-02-13T02:11:54.230Z,-2.97
2018-02-13T02:12:54.518Z,-2.96
2018-02-13T02:13:54.237Z,-2.95
2018-02-13T02:14:54.465Z,-2.96
2018-02-13T02:15:54.227Z,-2.93
2018-02-13T02:16:54.260Z,-2.98
2018-02-13T02:17:54.246Z,-3
2018-02-13T02:18:54.246Z,-2.99
2018-02-13T02:19:54.197Z,-2.98
2018-02-13T02:20:54.163Z,-3.01
2018-02-13T02:21:54.194Z,-3.03
2018-02-13T02:22:54.170Z,-3.02
2018-02-13T02:23:54.178Z,-3.01
2018-02-13T02:24:54.156Z,-3
2018-02-13T02:25:54.199Z,-3.01
2018-02-13T02:26:54.148Z,-3.06
2018-02-13T02:27:54.166Z,-3.01
2018-02-13T02:28:54.180Z,-3.03
2018-02-13T02:29:54.208Z,-3.03
2018-02-13T02:30:54.173Z,-3.03
2018-02-13T02:31:54.158Z,-3.03
2018-02-13T02:32:54.163Z,-2.98
2018-02-13T02:33:54.167Z,-3.02
2018-02-13T02:34:54.184Z,-3
2018-02-13T02:35:54.178Z,-3.05
2018-02-13T02:36:54.146Z,-3.02
2018-02-13T02:37:54.154Z,-3.02
2018-02-13T02:38:54.163Z,-3.05
2018-02-13T02:39:54.170Z,-3.04
2018-02-13T02:40:54.223Z,-3.01
2018-02-13T02:41:54.273Z,-2.98
2018-02-13T02:42:54.180Z,-3.02
2018-02-13T02:43:54.189Z,-3.01
2018-02-13T02:44:54.174Z,-2.97
2018-02-13T02:45:54.186Z,-2.96
2018-02-13T02:46:54.156Z,-3.03
2018-02-13T02:47:54.195Z,-2.98
2018-02-13T02:48:54.166Z,-3.01
2018-02-13T02:49:54.195Z,-2.99
2018-02-13T02:50:54.049Z,-3.05
2018-02-13T02:51:54.044Z,-3.08
2018-02-13T02:52:54.036Z,-3.08
2018-02-13T02:53:54.091Z,-3.12
2018-02-13T02:54:54.038Z,-3.11
2018-02-13T02:55:54.226Z,-3.11
2018-02-13T02:56:54.013Z,-3.08
2018-02-13T02:57:54.019Z,-3.06
2018-02-13T02:58:54.023Z,-3.1
2018-02-13T02:59:54.030Z,-3.14
2018-02-13T03:00:54.068Z,-3.11
2018-02-13T03:01:54.036Z,-3.09
2018-02-13T03:02:54.028Z,-3.15
2018-02-13T03:03:54.055Z,-3.12
2018-02-13T03:04:54.022Z,-3.1
2018-02-13T03:05:54.047Z,-3.13
2018-02-13T03:06:54.016Z,-3.12
2018-02-13T03:07:54.164Z,-3.13
2018-02-13T03:10:21.067Z,-3.19
2018-02-13T03:10:54.023Z,-3.17
2018-02-13T03:11:54.018Z,-3.14
2018-02-13T03:12:54.038Z,-3.15
2018-02-13T03:13:54.096Z,-3.12
2018-02-13T03:14:54.013Z,-3.13
2018-02-13T03:15:54.020Z,-3.11
2018-02-13T03:16:54.034Z,-3.08
2018-02-13T03:18:02.076Z,-3.12
2018-02-13T03:18:54.089Z,-3.07
2018-02-13T03:19:54.080Z,-3.05
2018-02-13T03:20:54.023Z,-3.04
2018-02-13T03:21:53.853Z,-3.09
2018-02-13T03:22:53.855Z,-3.07
2018-02-13T03:23:53.844Z,-3.03
2018-02-13T03:24:53.849Z,-3.07
2018-02-13T03:25:53.843Z,-3.08
2018-02-13T03:26:53.857Z,-3.09
2018-02-13T03:27:53.917Z,-3.07
2018-02-13T03:28:53.849Z,-3.11
2018-02-13T03:29:53.848Z,-3.08
2018-02-13T03:30:53.888Z,-3.15
2018-02-13T03:31:53.865Z,-3.12
2018-02-13T03:32:53.894Z,-3.07
2018-02-13T03:33:53.855Z,-3.11
2018-02-13T03:34:53.873Z,-3.11
2018-02-13T03:35:53.878Z,-3.15
2018-02-13T03:36:53.876Z,-3.18
2018-02-13T03:37:53.858Z,-3.2
2018-02-13T03:38:53.889Z,-3.17
2018-02-13T03:39:53.877Z,-3.12
2018-02-13T03:40:53.878Z,-3.2
2018-02-13T03:41:53.888Z,-3.18
2018-02-13T03:42:53.859Z,-3.19
2018-02-13T03:43:53.899Z,-3.19
2018-02-13T03:44:53.881Z,-3.2
2018-02-13T03:45:53.867Z,-3.17
2018-02-13T03:46:53.882Z,-3.26
2018-02-13T03:47:53.884Z,-3.22
2018-02-13T03:48:53.913Z,-3.15
2018-02-13T03:49:53.864Z,-3.16
2018-02-13T03:50:53.869Z,-3.15
2018-02-13T03:51:53.877Z,-3.16
2018-02-13T03:52:54.691Z,-3.15
2018-02-13T03:53:55.003Z,-3.19
2018-02-13T03:54:54.705Z,-3.17
2018-02-13T03:55:54.707Z,-3.19
2018-02-13T03:56:54.687Z,-3.12
2018-02-13T03:57:54.699Z,-3.15
2018-02-13T03:58:54.724Z,-3.13
2018-02-13T03:59:54.700Z,-3.23
2018-02-13T04:00:54.709Z,-3.2
2018-02-13T04:01:54.695Z,-3.19
2018-02-13T04:02:54.712Z,-3.18
2018-02-13T04:03:54.729Z,-3.19
2018-02-13T04:04:54.722Z,-3.21
2018-02-13T04:05:54.699Z,-3.23
2018-02-13T04:06:54.704Z,-3.23
2018-02-13T04:07:54.704Z,-3.24
2018-02-13T04:08:54.711Z,-3.25
2018-02-13T04:09:54.731Z,-3.24
2018-02-13T04:10:54.703Z,-3.33
2018-02-13T04:11:54.733Z,-3.28
2018-02-13T04:12:54.726Z,-3.27
2018-02-13T04:13:54.738Z,-3.32
2018-02-13T04:14:54.756Z,-3.33
2018-02-13T04:15:54.710Z,-3.37
2018-02-13T04:16:54.722Z,-3.34
2018-02-13T04:17:54.720Z,-3.31
2018-02-13T04:18:54.742Z,-3.35
2018-02-13T04:19:54.730Z,-3.33
2018-02-13T04:20:54.714Z,-3.4
2018-02-13T04:21:54.721Z,-3.43
2018-02-13T04:22:54.545Z,-3.38
2018-02-13T04:23:54.677Z,-3.35
2018-02-13T04:24:54.556Z,-3.38
2018-02-13T04:25:54.550Z,-3.39
2018-02-13T04:26:54.557Z,-3.4
2018-02-13T04:27:54.544Z,-3.39
2018-02-13T04:28:54.577Z,-3.39
2018-02-13T04:29:54.546Z,-3.42
2018-02-13T04:30:54.560Z,-3.35
2018-02-13T04:31:54.565Z,-3.36
2018-02-13T04:32:54.565Z,-3.41
2018-02-13T04:33:54.667Z,-3.46
2018-02-13T04:34:54.559Z,-3.44
2018-02-13T04:35:54.542Z,-3.4
2018-02-13T04:36:54.557Z,-3.35
2018-02-13T04:37:54.549Z,-3.38
2018-02-13T04:38:54.585Z,-3.37
2018-02-13T04:39:54.573Z,-3.4
2018-02-13T04:40:54.828Z,-3.43
2018-02-13T04:41:54.564Z,-3.44
2018-02-13T04:42:54.569Z,-3.33
2018-02-13T04:43:54.576Z,-3.29
2018-02-13T04:44:54.565Z,-3.34
2018-02-13T04:45:54.580Z,-3.38
2018-02-13T04:46:54.552Z,-3.4
2018-02-13T04:47:54.568Z,-3.46
2018-02-13T04:48:54.600Z,-3.49
2018-02-13T04:49:54.575Z,-3.45
2018-02-13T04:50:54.569Z,-3.36
2018-02-13T04:51:54.550Z,-3.43
2018-02-13T04:52:54.568Z,-3.37
2018-02-13T04:53:54.411Z,-3.39
2018-02-13T04:54:54.396Z,-3.39
2018-02-13T04:55:54.780Z,-3.34
2018-02-13T04:56:54.395Z,-3.33
2018-02-13T04:57:54.387Z,-3.3
2018-02-13T04:58:54.398Z,-3.39
2018-02-13T04:59:54.402Z,-3.41
2018-02-13T05:00:54.449Z,-3.34
2018-02-13T05:01:54.401Z,-3.38
2018-02-13T05:02:54.411Z,-3.28
2018-02-13T05:03:54.410Z,-3.31
2018-02-13T05:04:54.417Z,-3.28
2018-02-13T05:05:54.809Z,-3.29
2018-02-13T05:06:54.398Z,-3.22
2018-02-13T05:07:54.411Z,-3.26
2018-02-13T05:08:54.399Z,-3.26
2018-02-13T05:09:54.405Z,-3.28
2018-02-13T05:10:54.444Z,-3.21
2018-02-13T05:11:54.419Z,-3.23
2018-02-13T05:12:54.398Z,-3.21
2018-02-13T05:13:54.416Z,-3.16
2018-02-13T05:14:54.407Z,-3.18
2018-02-13T05:15:54.405Z,-3.11
2018-02-13T05:16:54.406Z,-3.09
2018-02-13T05:17:54.440Z,-3.16
2018-02-13T05:18:54.419Z,-3.21
2018-02-13T05:19:54.417Z,-3.25
2018-02-13T05:20:54.429Z,-3.26
2018-02-13T05:21:54.412Z,-3.25
2018-02-13T05:22:54.440Z,-3.21
2018-02-13T05:23:54.423Z,-3.25
2018-02-13T05:24:54.254Z,-3.2
2018-02-13T05:25:54.274Z,-3.17
2018-02-13T05:26:54.251Z,-3.16
2018-02-13T05:28:54.266Z,-3.23
2018-02-13T05:29:54.265Z,-3.22
2018-02-13T05:30:54.256Z,-3.16
2018-02-13T05:31:54.238Z,-3.18
2018-02-13T05:32:54.290Z,-3.23
2018-02-13T05:33:54.290Z,-3.16
2018-02-13T05:34:54.265Z,-3.16
2018-02-13T05:35:54.240Z,-3.13
2018-02-13T05:36:54.256Z,-3.17
2018-02-13T05:37:54.287Z,-3.14
2018-02-13T05:38:54.263Z,-3.09
2018-02-13T05:39:54.311Z,-3.1
2018-02-13T05:40:54.272Z,-3.15
2018-02-13T05:41:54.267Z,-3.16
2018-02-13T05:42:54.289Z,-3.2
2018-02-13T05:43:54.264Z,-3.17
2018-02-13T05:44:54.258Z,-3.19
2018-02-13T05:45:54.263Z,-3.2
2018-02-13T05:46:54.273Z,-3.2
2018-02-13T05:47:54.259Z,-3.23
2018-02-13T05:48:54.286Z,-3.23
2018-02-13T05:49:54.296Z,-3.25
2018-02-13T05:50:54.348Z,-3.25
2018-02-13T05:51:54.258Z,-3.3
2018-02-13T05:52:54.266Z,-3.22
2018-02-13T05:53:54.262Z,-3.17
2018-02-13T05:54:54.275Z,-3.24
2018-02-13T05:55:54.160Z,-3.28
2018-02-13T05:56:54.145Z,-3.24
2018-02-13T06:00:22.168Z,-3.22
2018-02-13T06:00:54.156Z,-3.21
2018-02-13T06:01:54.402Z,-3.25
2018-02-13T06:02:54.190Z,-3.16
2018-02-13T06:03:54.150Z,-3.15
2018-02-13T06:04:54.142Z,-3.18
2018-02-13T06:05:54.147Z,-3.18
2018-02-13T06:06:54.384Z,-3.13
2018-02-13T06:07:54.147Z,-3.13
2018-02-13T06:08:54.162Z,-3.18
2018-02-13T06:09:54.163Z,-3.19
2018-02-13T06:10:54.177Z,-3.2
2018-02-13T06:11:54.164Z,-3.23
2018-02-13T06:12:54.166Z,-3.13
2018-02-13T06:13:54.141Z,-3.12
2018-02-13T06:14:54.142Z,-3.11
2018-02-13T06:15:54.156Z,-3.05
2018-02-13T06:16:54.144Z,-3.03
2018-02-13T06:17:54.163Z,-3.04
2018-02-13T06:18:54.158Z,-3.12
2018-02-13T06:19:54.205Z,-3.13
2018-02-13T06:20:54.262Z,-3.09
2018-02-13T06:21:54.143Z,-3.08
2018-02-13T06:22:54.164Z,-3.04
2018-02-13T06:23:54.172Z,-3.07
2018-02-13T06:24:54.169Z,-3.1
2018-02-13T06:25:54.149Z,-3.15
2018-02-13T06:26:54.014Z,-3.1
2018-02-13T06:27:53.968Z,-3.1
2018-02-13T06:28:54.001Z,-3.11
2018-02-13T06:29:53.991Z,-3.08
2018-02-13T06:30:54.000Z,-3.04
2018-02-13T06:31:54.004Z,-3.07
2018-02-13T06:32:54.001Z,-3.03
2018-02-13T06:33:53.994Z,-3.05
2018-02-13T06:34:54.046Z,-3.01
2018-02-13T06:35:53.987Z,-2.94
2018-02-13T06:36:53.989Z,-2.97
2018-02-13T06:37:53.998Z,-2.99
2018-02-13T06:38:54.234Z,-2.97
2018-02-13T06:39:54.063Z,-2.93
2018-02-13T06:40:53.999Z,-2.95
2018-02-13T06:41:54.003Z,-2.96
2018-02-13T06:42:54.064Z,-3.02
2018-02-13T06:43:54.000Z,-2.9
2018-02-13T06:44:54.022Z,-2.9
2018-02-13T06:45:54.003Z,-2.86
2018-02-13T06:46:53.997Z,-2.87
2018-02-13T06:47:53.999Z,-2.81
2018-02-13T06:48:54.011Z,-2.86
2018-02-13T06:49:54.021Z,-2.9
2018-02-13T06:50:54.003Z,-2.9
2018-02-13T06:51:53.991Z,-2.86
2018-02-13T06:52:53.998Z,-2.9
2018-02-13T06:53:54.010Z,-2.86
2018-02-13T06:54:53.991Z,-2.77
2018-02-13T06:55:53.988Z,-2.84
2018-02-13T06:56:54.114Z,-2.75
2018-02-13T06:57:53.931Z,-2.76
2018-02-13T06:58:53.998Z,-2.72
2018-02-13T06:59:53.946Z,-2.75
2018-02-13T07:00:54.015Z,-2.74
2018-02-13T07:01:53.975Z,-2.67
2018-02-13T07:02:53.936Z,-2.73
2018-02-13T07:03:53.944Z,-2.83
2018-02-13T07:04:53.946Z,-2.78
2018-02-13T07:05:53.933Z,-2.75
2018-02-13T07:06:53.942Z,-2.76
2018-02-13T07:07:53.945Z,-2.69
2018-02-13T07:08:53.965Z,-2.68
2018-02-13T07:09:53.925Z,-2.65
2018-02-13T07:10:53.948Z,-2.6
2018-02-13T07:11:53.925Z,-2.65
2018-02-13T07:12:53.943Z,-2.65
2018-02-13T07:13:53.931Z,-2.6
2018-02-13T07:14:53.931Z,-2.62
2018-02-13T07:15:53.946Z,-2.63
2018-02-13T07:16:54.009Z,-2.55
2018-02-13T07:17:53.947Z,-2.59
2018-02-13T07:18:53.943Z,-2.59
2018-02-13T07:19:53.956Z,-2.59
2018-02-13T07:20:53.965Z,-2.54
2018-02-13T07:21:53.972Z,-2.54
2018-02-13T07:22:53.956Z,-2.51
2018-02-13T07:23:53.950Z,-2.54
2018-02-13T07:24:53.967Z,-2.49
2018-02-13T07:25:53.939Z,-2.46
2018-02-13T07:26:53.944Z,-2.47
2018-02-13T07:27:53.939Z,-2.48
2018-02-13T07:28:53.820Z,-2.44
2018-02-13T07:29:53.839Z,-2.41
2018-02-13T07:30:53.814Z,-2.48
2018-02-13T07:31:53.926Z,-2.39
2018-02-13T07:32:53.830Z,-2.4
2018-02-13T07:33:53.818Z,-2.41
2018-02-13T07:34:53.823Z,-2.39
2018-02-13T07:35:53.831Z,-2.41
2018-02-13T07:36:53.835Z,-2.43
2018-02-13T07:37:53.824Z,-2.41
2018-02-13T07:38:53.844Z,-2.45
2018-02-13T07:39:53.872Z,-2.41
2018-02-13T07:40:53.928Z,-2.37
2018-02-13T07:41:53.824Z,-2.4
2018-02-13T07:42:53.816Z,-2.36
2018-02-13T07:43:53.826Z,-2.35
2018-02-13T07:44:53.832Z,-2.35
2018-02-13T07:45:53.846Z,-2.29
2018-02-13T07:46:53.848Z,-2.3
2018-02-13T07:47:53.822Z,-2.32
2018-02-13T07:48:53.834Z,-2.34
2018-02-13T07:49:53.838Z,-2.33
2018-02-13T07:50:53.836Z,-2.33
2018-02-13T07:51:53.841Z,-2.25
2018-02-13T07:52:53.813Z,-2.25
2018-02-13T07:53:53.822Z,-2.3
2018-02-13T07:54:53.887Z,-2.23
2018-02-13T07:55:53.853Z,-2.22
2018-02-13T07:56:53.830Z,-2.3
2018-02-13T07:57:53.892Z,-2.23
2018-02-13T07:58:53.825Z,-2.28
2018-02-13T07:59:54.651Z,-2.27
2018-02-13T08:00:54.945Z,-2.27
2018-02-13T08:01:54.644Z,-2.23
2018-02-13T08:02:54.651Z,-2.22
2018-02-13T08:03:54.658Z,-2.21
2018-02-13T08:04:54.648Z,-2.27
2018-02-13T08:05:54.675Z,-2.24
2018-02-13T08:06:54.646Z,-2.26
2018-02-13T08:07:54.788Z,-2.29
2018-02-13T08:08:54.697Z,-2.28
2018-02-13T08:09:54.792Z,-2.24
2018-02-13T08:10:54.688Z,-2.15
2018-02-13T08:11:54.642Z,-2.19
2018-02-13T08:12:54.644Z,-2.23
2018-02-13T08:13:54.641Z,-2.22
2018-02-13T08:14:54.646Z,-2.16
2018-02-13T08:15:54.641Z,-2.23
2018-02-13T08:16:54.651Z,-2.2
2018-02-13T08:17:54.655Z,-2.18
2018-02-13T08:18:54.659Z,-2.15
2018-02-13T08:19:54.652Z,-2.17
2018-02-13T08:20:54.647Z,-2.17
2018-02-13T08:21:54.661Z,-2.19
2018-02-13T08:22:54.654Z,-2.14
2018-02-13T08:23:54.674Z,-2.16
2018-02-13T08:24:54.640Z,-2.19
2018-02-13T08:25:54.645Z,-2.17
2018-02-13T08:26:54.653Z,-2.18
2018-02-13T08:27:54.751Z,-2.21
2018-02-13T08:28:54.670Z,-2.23
2018-02-13T08:29:54.558Z,-2.19
2018-02-13T08:30:54.559Z,-2.16
2018-02-13T08:31:54.564Z,-2.17
2018-02-13T08:32:54.543Z,-2.14
2018-02-13T08:33:54.555Z,-2.13
2018-02-13T08:34:54.559Z,-2.16
2018-02-13T08:35:54.564Z,-2.06
2018-02-13T08:36:54.551Z,-2.13
2018-02-13T08:37:54.566Z,-2.13
2018-02-13T08:38:54.580Z,-2.12
2018-02-13T08:39:54.575Z,-2.12
2018-02-13T08:40:54.557Z,-2.12
2018-02-13T08:41:54.556Z,-2.07
2018-02-13T08:42:54.565Z,-2.12
2018-02-13T08:43:54.630Z,-2.09
2018-02-13T08:44:54.578Z,-2.07
2018-02-13T08:45:54.565Z,-2.1
2018-02-13T08:46:54.574Z,-2.06
2018-02-13T08:47:54.561Z,-1.97
2018-02-13T08:48:54.562Z,-2.01
2018-02-13T08:49:54.628Z,-1.97
2018-02-13T08:50:54.575Z,-2.02
2018-02-13T08:51:54.582Z,-2.02
2018-02-13T08:52:54.555Z,-2.1
2018-02-13T08:53:54.569Z,-2.05
2018-02-13T08:54:54.604Z,-2.08
2018-02-13T08:55:54.576Z,-2.03
2018-02-13T08:56:54.559Z,-2
2018-02-13T08:57:54.576Z,-1.96
2018-02-13T08:58:54.611Z,-2.01
2018-02-13T08:59:54.573Z,-1.99
2018-02-13T09:00:54.419Z,-1.94
2018-02-13T09:01:54.428Z,-1.97
2018-02-13T09:02:54.453Z,-1.91
2018-02-13T09:03:54.419Z,-1.96
2018-02-13T09:04:54.432Z,-1.99
2018-02-13T09:05:54.448Z,-2.05
2018-02-13T09:06:54.706Z,-2.01
2018-02-13T09:07:54.418Z,-2.08
2018-02-13T09:08:54.443Z,-2.08
2018-02-13T09:09:54.425Z,-2.07
2018-02-13T09:10:54.429Z,-2.04
2018-02-13T09:11:54.448Z,-2.08
2018-02-13T09:12:54.437Z,-2.05
2018-02-13T09:13:54.430Z,-2.08
2018-02-13T09:14:54.445Z,-2.02
2018-02-13T09:15:54.421Z,-2.08
2018-02-13T09:16:54.452Z,-2.08
2018-02-13T09:17:54.474Z,-2.06
2018-02-13T09:18:54.453Z,-2.06
2018-02-13T09:19:54.434Z,-1.96
2018-02-13T09:20:54.456Z,-1.92
2018-02-13T09:21:54.429Z,-1.94
2018-02-13T09:22:54.444Z,-1.9
2018-02-13T09:23:54.491Z,-1.88
2018-02-13T09:24:54.429Z,-1.81
2018-02-13T09:25:54.426Z,-1.83
2018-02-13T09:26:54.438Z,-1.85
2018-02-13T09:27:54.448Z,-1.77
2018-02-13T09:28:54.420Z,-1.74
2018-02-13T09:29:54.823Z,-1.66
2018-02-13T09:30:54.660Z,-1.67
2018-02-13T09:31:54.647Z,-1.73
2018-02-13T09:32:54.649Z,-1.86
2018-02-13T09:33:54.670Z,-1.91
2018-02-13T09:34:54.692Z,-1.89
2018-02-13T09:35:54.650Z,-1.89
2018-02-13T09:36:54.655Z,-1.91
2018-02-13T09:37:54.644Z,-1.93
2018-02-13T09:38:54.656Z,-1.99
2018-02-13T09:39:54.681Z,-2.02
2018-02-13T09:40:54.663Z,-1.98
2018-02-13T09:41:54.654Z,-1.97
2018-02-13T09:42:54.658Z,-1.9
2018-02-13T09:43:54.664Z,-1.9
2018-02-13T09:44:54.658Z,-1.92
2018-02-13T09:45:54.953Z,-1.92
2018-02-13T09:46:54.648Z,-1.88
2018-02-13T09:47:54.650Z,-1.82
2018-02-13T09:48:54.665Z,-1.82
2018-02-13T09:49:54.720Z,-1.82
2018-02-13T09:50:54.685Z,-1.81
2018-02-13T09:51:54.656Z,-1.76
2018-02-13T09:52:54.665Z,-1.67
2018-02-13T09:53:54.666Z,-1.71
2018-02-13T09:54:54.666Z,-1.72
2018-02-13T09:55:54.703Z,-1.69
2018-02-13T09:56:54.678Z,-1.79
2018-02-13T09:57:54.671Z,-1.67
2018-02-13T09:58:54.645Z,-1.74
2018-02-13T09:59:54.660Z,-1.67
2018-02-13T10:00:54.695Z,-1.75
2018-02-13T10:01:54.551Z,-1.68
2018-02-13T10:02:54.526Z,-1.72
2018-02-13T10:03:54.603Z,-1.58
2018-02-13T10:04:54.543Z,-1.67
2018-02-13T10:05:54.548Z,-1.7
2018-02-13T10:06:54.528Z,-1.67
2018-02-13T10:07:54.530Z,-1.68
2018-02-13T10:08:54.513Z,-1.63
2018-02-13T10:09:54.601Z,-1.56
2018-02-13T10:10:54.558Z,-1.47
2018-02-13T10:11:54.532Z,-1.61
2018-02-13T10:12:54.540Z,-1.68
2018-02-13T10:13:54.521Z,-1.67
2018-02-13T10:14:54.528Z,-1.79
2018-02-13T10:15:54.534Z,-1.82
2018-02-13T10:16:54.523Z,-1.7
2018-02-13T10:17:54.536Z,-1.57
2018-02-13T10:18:54.521Z,-1.53
2018-02-13T10:19:54.526Z,-1.53
2018-02-13T10:20:54.519Z,-1.47
2018-02-13T10:21:54.555Z,-1.57
2018-02-13T10:22:54.531Z,-1.48
2018-02-13T10:23:54.528Z,-1.4
2018-02-13T10:24:54.544Z,-1.38
2018-02-13T10:25:54.543Z,-1.31
2018-02-13T10:26:54.539Z,-1.28
2018-02-13T10:27:54.612Z,-1.22
2018-02-13T10:28:54.635Z,-1.4
2018-02-13T10:29:54.624Z,-1.63
2018-02-13T10:30:54.638Z,-1.58
2018-02-13T10:31:54.847Z,-1.71
2018-02-13T10:32:53.857Z,-1.48
2018-02-13T10:33:53.874Z,-1.37
2018-02-13T10:34:53.879Z,-1.37
2018-02-13T10:35:53.889Z,-1.37
2018-02-13T10:36:53.886Z,-1.23
2018-02-13T10:37:53.885Z,-1.63
2018-02-13T10:38:53.877Z,-2.06
2018-02-13T10:39:53.862Z,-2.15
2018-02-13T10:40:53.912Z,-2.12
2018-02-13T10:41:53.872Z,-2.02
2018-02-13T10:42:53.866Z,-1.87
2018-02-13T10:43:53.869Z,-1.82
2018-02-13T10:44:53.865Z,-1.91
2018-02-13T10:45:53.910Z,-1.85
2018-02-13T10:46:53.892Z,-2.04
2018-02-13T10:47:53.889Z,-2.05
2018-02-13T10:48:53.884Z,-2.09
2018-02-13T10:49:53.867Z,-2.02
2018-02-13T10:50:53.914Z,-1.84
2018-02-13T10:51:53.886Z,-1.97
2018-02-13T10:52:53.872Z,-1.86
2018-02-13T10:54:53.912Z,-1.98
2018-02-13T10:55:53.890Z,-2.21
2018-02-13T10:56:53.860Z,-1.9
2018-02-13T10:57:53.873Z,-2.05
2018-02-13T10:58:53.873Z,-1.71
2018-02-13T10:59:53.880Z,-1.64
2018-02-13T11:00:53.944Z,-1.81
2018-02-13T11:01:53.895Z,-1.91
2018-02-13T11:02:53.877Z,-2
2018-02-13T11:03:53.709Z,-1.91
2018-02-13T11:04:53.715Z,-1.97
2018-02-13T11:05:53.818Z,-1.88
2018-02-13T11:06:53.977Z,-2.18
2018-02-13T11:07:53.709Z,-2.04
2018-02-13T11:08:53.712Z,-2.14
2018-02-13T11:09:53.705Z,-2.12
2018-02-13T11:10:53.754Z,-2.06
2018-02-13T11:11:53.753Z,-2
2018-02-13T11:12:53.721Z,-2.37
2018-02-13T11:13:53.692Z,-2.53
2018-02-13T11:14:53.837Z,-2.37
2018-02-13T11:15:53.724Z,-2.38
2018-02-13T11:16:53.750Z,-2.31
2018-02-13T11:17:53.702Z,-2.5
2018-02-13T11:18:53.720Z,-2.31
2018-02-13T11:19:53.722Z,-2.31
2018-02-13T11:20:53.694Z,-2.33
2018-02-13T11:21:53.715Z,-2.31
2018-02-13T11:22:53.713Z,-2.33
2018-02-13T11:23:53.719Z,-3.2
2018-02-13T11:24:53.733Z,-3.44
2018-02-13T11:25:53.712Z,-3.69
2018-02-13T11:26:53.824Z,-4.25
2018-02-13T11:27:53.732Z,-4.58
2018-02-13T11:28:53.715Z,-4.44
2018-02-13T11:29:53.717Z,-4.68
2018-02-13T11:30:53.703Z,-4.87
2018-02-13T11:31:53.693Z,-4.58
2018-02-13T11:32:53.704Z,-4.14
2018-02-13T11:33:53.707Z,-4.51
2018-02-13T11:34:54.572Z,-4.61
2018-02-13T11:35:54.598Z,-4.69
2018-02-13T11:36:54.562Z,-4.64
2018-02-13T11:37:54.533Z,-4.83
2018-02-13T11:38:54.554Z,-4.58
2018-02-13T11:39:54.583Z,-4.59
2018-02-13T11:40:54.536Z,-4.94
2018-02-13T11:41:54.538Z,-4.73
2018-02-13T11:42:54.543Z,-4.42
2018-02-13T11:43:54.530Z,-4.44
2018-02-13T11:44:54.541Z,-4.53
2018-02-13T11:45:54.544Z,-4.65
2018-02-13T11:46:54.553Z,-4.87
2018-02-13T11:47:54.555Z,-4.49
2018-02-13T11:48:54.571Z,-4.9
2018-02-13T11:49:54.553Z,-4.85
2018-02-13T11:50:54.555Z,-4.84
2018-02-13T11:51:54.898Z,-4.23
2018-02-13T11:52:54.555Z,-4.35
2018-02-13T11:53:58.826Z,-4.12
2018-02-13T11:55:00.985Z,-4.19
2018-02-13T11:56:07.466Z,-4.08
2018-02-13T11:56:54.818Z,-4.64
2018-02-13T11:57:54.544Z,-4.41
2018-02-13T11:58:54.543Z,-4.67
2018-02-13T11:59:54.616Z,-4.41
2018-02-13T12:00:54.555Z,-4.55
2018-02-13T12:01:54.570Z,-4.46
2018-02-13T12:02:54.559Z,-4.64
2018-02-13T12:03:54.583Z,-4.52
2018-02-13T12:04:53.731Z,-4.87
2018-02-13T12:05:53.759Z,-4.55
2018-02-13T12:06:53.718Z,-5.02
2018-02-13T12:07:53.694Z,-5.01
2018-02-13T12:08:53.730Z,-4.71
2018-02-13T12:09:53.724Z,-4.74
2018-02-13T12:10:53.713Z,-4.7
2018-02-13T12:11:53.809Z,-4.96
2018-02-13T12:12:53.710Z,-4.8
2018-02-13T12:13:54.143Z,-4.74
2018-02-13T12:14:53.762Z,-4.85
2018-02-13T12:15:53.725Z,-4.87
2018-02-13T12:16:53.694Z,-4.81
2018-02-13T12:17:53.705Z,-4.86
2018-02-13T12:18:53.715Z,-5.37
2018-02-13T12:19:53.747Z,-4.65
2018-02-13T12:20:53.705Z,-5.02
2018-02-13T12:21:53.686Z,-4.83
2018-02-13T12:22:53.717Z,-4.67
2018-02-13T12:23:53.737Z,-4.64
2018-02-13T12:24:53.708Z,-4.88
2018-02-13T12:25:53.704Z,-4.72
2018-02-13T12:26:53.722Z,-4.94
2018-02-13T12:27:53.690Z,-4.96
2018-02-13T12:28:53.730Z,-5.16
2018-02-13T12:29:53.721Z,-5.19
2018-02-13T12:30:53.712Z,-4.61
2018-02-13T12:31:53.717Z,-4.4
2018-02-13T12:32:53.699Z,-4.59
2018-02-13T12:33:53.725Z,-4.94
2018-02-13T12:34:53.725Z,-4.84
2018-02-13T12:35:54.587Z,-5.12
2018-02-13T12:36:54.594Z,-5.24
2018-02-13T12:37:54.571Z,-5.17
2018-02-13T12:38:54.564Z,-5.03
2018-02-13T12:39:54.581Z,-5.08
2018-02-13T12:40:54.564Z,-4.52
2018-02-13T12:41:54.570Z,-4.32
2018-02-13T12:42:54.826Z,-4.71
2018-02-13T12:43:54.579Z,-4.98
2018-02-13T12:44:54.975Z,-4.89
2018-02-13T12:45:54.631Z,-5.01
2018-02-13T12:46:54.577Z,-5.04
2018-02-13T12:47:54.583Z,-4.86
2018-02-13T12:48:54.694Z,-5.04
2018-02-13T12:49:54.593Z,-5.25
2018-02-13T12:50:54.577Z,-5.34
2018-02-13T12:51:54.595Z,-5.02
2018-02-13T12:52:54.559Z,-4.96
2018-02-13T12:53:54.566Z,-5.27
2018-02-13T12:54:54.601Z,-5.31
2018-02-13T12:55:54.585Z,-5.49
2018-02-13T12:56:54.569Z,-5.38
2018-02-13T12:57:54.654Z,-4.94
2018-02-13T12:58:54.578Z,-5.36
2018-02-13T12:59:54.609Z,-5.31
2018-02-13T13:00:54.596Z,-5.21
2018-02-13T13:01:54.582Z,-4.91
2018-02-13T13:02:54.582Z,-5.48
2018-02-13T13:03:54.589Z,-5.24
2018-02-13T13:04:54.598Z,-5.18
2018-02-13T13:05:54.446Z,-5.37
2018-02-13T13:06:54.453Z,-5.61